sensor_id;sensor_type;location;lat;lon;timestamp;pressure;altitude;pressure_sealevel;temperature;humidity
56821;BME280;42702;50.178;20.992;2022-11-20T00:01:33;99113.89;;;-2.33;71.19
56821;BME280;42702;50.178;20.992;2022-11-20T00:04:01;99116.69;;;-2.36;71.20
56821;BME280;42702;50.178;20.992;2022-11-20T00:06:30;99119.73;;;-2.44;71.04
56821;BME280;42702;50.178;20.992;2022-11-20T00:08:59;99121.73;;;-2.53;71.02
56821;BME280;42702;50.178;20.992;2022-11-20T00:11:31;99117.98;;;-2.57;71.02
56821;BME280;42702;50.178;20.992;2022-11-20T00:14:01;99125.34;;;-2.49;70.94
56821;BME280;42702;50.178;20.992;2022-11-20T00:16:31;99121.33;;;-2.51;70.87
56821;BME280;42702;50.178;20.992;2022-11-20T00:19:00;99118.34;;;-2.57;71.03
56821;BME280;42702;50.178;20.992;2022-11-20T00:21:29;99121.04;;;-2.61;70.87
56821;BME280;42702;50.178;20.992;2022-11-20T00:23:58;99122.06;;;-2.65;71.03
56821;BME280;42702;50.178;20.992;2022-11-20T00:26:28;99118.21;;;-2.64;71.32
56821;BME280;42702;50.178;20.992;2022-11-20T00:29:00;99121.46;;;-2.63;71.00
56821;BME280;42702;50.178;20.992;2022-11-20T00:31:30;99124.28;;;-2.73;70.63
56821;BME280;42702;50.178;20.992;2022-11-20T00:33:58;99124.94;;;-2.81;70.80
56821;BME280;42702;50.178;20.992;2022-11-20T00:36:28;99125.77;;;-2.82;71.11
56821;BME280;42702;50.178;20.992;2022-11-20T00:38:57;99129.59;;;-2.84;70.93
56821;BME280;42702;50.178;20.992;2022-11-20T00:41:28;99123.48;;;-2.91;71.04
56821;BME280;42702;50.178;20.992;2022-11-20T00:43:57;99119.56;;;-2.91;71.22
56821;BME280;42702;50.178;20.992;2022-11-20T00:46:26;99119.23;;;-2.91;70.96
56821;BME280;42702;50.178;20.992;2022-11-20T00:48:55;99122.01;;;-2.94;70.86
56821;BME280;42702;50.178;20.992;2022-11-20T00:51:25;99123.98;;;-2.88;70.78
56821;BME280;42702;50.178;20.992;2022-11-20T00:53:57;99121.96;;;-2.87;70.72
56821;BME280;42702;50.178;20.992;2022-11-20T00:56:26;99120.88;;;-2.92;70.90
56821;BME280;42702;50.178;20.992;2022-11-20T00:58:54;99121.10;;;-2.95;70.92
56821;BME280;42702;50.178;20.992;2022-11-20T01:01:25;99121.04;;;-2.96;71.14
56821;BME280;42702;50.178;20.992;2022-11-20T01:03:56;99124.25;;;-2.97;70.90
56821;BME280;42702;50.178;20.992;2022-11-20T01:06:28;99121.41;;;-2.99;71.13
56821;BME280;42702;50.178;20.992;2022-11-20T01:08:58;99120.98;;;-3.05;71.04
56821;BME280;42702;50.178;20.992;2022-11-20T01:11:32;99114.75;;;-3.11;71.11
56821;BME280;42702;50.178;20.992;2022-11-20T01:14:03;99117.23;;;-3.16;71.18
56821;BME280;42702;50.178;20.992;2022-11-20T01:16:35;99112.80;;;-3.23;71.37
56821;BME280;42702;50.178;20.992;2022-11-20T01:19:06;99109.98;;;-3.30;71.49
56821;BME280;42702;50.178;20.992;2022-11-20T01:21:38;99105.53;;;-3.30;71.62
56821;BME280;42702;50.178;20.992;2022-11-20T01:24:07;99108.02;;;-3.20;71.37
56821;BME280;42702;50.178;20.992;2022-11-20T01:26:38;99110.16;;;-3.21;71.57
56821;BME280;42702;50.178;20.992;2022-11-20T01:29:23;99111.38;;;-3.25;71.76
56821;BME280;42702;50.178;20.992;2022-11-20T01:31:52;99110.50;;;-3.25;71.91
56821;BME280;42702;50.178;20.992;2022-11-20T01:34:21;99105.96;;;-3.20;71.91
56821;BME280;42702;50.178;20.992;2022-11-20T01:36:51;99108.11;;;-3.18;71.88
56821;BME280;42702;50.178;20.992;2022-11-20T01:39:23;99110.11;;;-3.15;71.95
56821;BME280;42702;50.178;20.992;2022-11-20T01:41:53;99104.21;;;-3.14;71.69
56821;BME280;42702;50.178;20.992;2022-11-20T01:52:46;99096.73;;;-3.17;71.56
56821;BME280;42702;50.178;20.992;2022-11-20T01:55:22;99098.14;;;-3.19;71.36
56821;BME280;42702;50.178;20.992;2022-11-20T01:57:54;99104.44;;;-3.28;71.24
56821;BME280;42702;50.178;20.992;2022-11-20T02:00:23;99103.27;;;-3.19;71.51
56821;BME280;42702;50.178;20.992;2022-11-20T02:02:54;99099.41;;;-3.18;71.45
56821;BME280;42702;50.178;20.992;2022-11-20T02:05:33;99100.88;;;-3.16;71.84
56821;BME280;42702;50.178;20.992;2022-11-20T02:08:05;99095.56;;;-3.13;71.72
56821;BME280;42702;50.178;20.992;2022-11-20T02:10:34;99091.21;;;-3.15;71.73
56821;BME280;42702;50.178;20.992;2022-11-20T02:13:03;99087.90;;;-3.13;71.80
56821;BME280;42702;50.178;20.992;2022-11-20T02:15:50;99082.48;;;-3.08;71.66
56821;BME280;42702;50.178;20.992;2022-11-20T02:18:20;99078.55;;;-3.04;71.63
56821;BME280;42702;50.178;20.992;2022-11-20T02:20:54;99080.55;;;-3.02;71.35
56821;BME280;42702;50.178;20.992;2022-11-20T02:24:09;99084.00;;;-3.05;71.12
56821;BME280;42702;50.178;20.992;2022-11-20T02:26:30;99080.63;;;-3.11;71.31
56821;BME280;42702;50.178;20.992;2022-11-20T02:29:00;99089.84;;;-3.19;71.21
56821;BME280;42702;50.178;20.992;2022-11-20T02:31:33;99088.96;;;-3.23;71.41
56821;BME280;42702;50.178;20.992;2022-11-20T02:34:01;99091.37;;;-3.26;71.28
56821;BME280;42702;50.178;20.992;2022-11-20T02:36:32;99086.06;;;-3.27;71.44
56821;BME280;42702;50.178;20.992;2022-11-20T02:39:02;99087.70;;;-3.20;71.12
56821;BME280;42702;50.178;20.992;2022-11-20T02:41:36;99089.91;;;-3.21;71.18
56821;BME280;42702;50.178;20.992;2022-11-20T02:44:05;99094.42;;;-3.23;71.34
56821;BME280;42702;50.178;20.992;2022-11-20T02:46:33;99096.60;;;-3.23;71.24
56821;BME280;42702;50.178;20.992;2022-11-20T02:49:03;99097.02;;;-3.26;71.28
56821;BME280;42702;50.178;20.992;2022-11-20T02:51:32;99101.30;;;-3.25;71.36
56821;BME280;42702;50.178;20.992;2022-11-20T02:54:00;99097.83;;;-3.27;71.12
56821;BME280;42702;50.178;20.992;2022-11-20T02:56:28;99101.17;;;-3.28;71.16
56821;BME280;42702;50.178;20.992;2022-11-20T02:58:56;99101.39;;;-3.31;70.89
56821;BME280;42702;50.178;20.992;2022-11-20T03:01:24;99101.52;;;-3.32;71.12
56821;BME280;42702;50.178;20.992;2022-11-20T03:03:53;99101.02;;;-3.32;71.02
56821;BME280;42702;50.178;20.992;2022-11-20T03:06:22;99095.10;;;-3.34;70.95
56821;BME280;42702;50.178;20.992;2022-11-20T03:08:50;99091.13;;;-3.39;70.77
56821;BME280;42702;50.178;20.992;2022-11-20T03:11:19;99094.08;;;-3.49;70.77
56821;BME280;42702;50.178;20.992;2022-11-20T03:13:47;99088.20;;;-3.50;70.96
56821;BME280;42702;50.178;20.992;2022-11-20T03:16:20;99083.82;;;-3.53;71.03
56821;BME280;42702;50.178;20.992;2022-11-20T03:18:51;99078.23;;;-3.56;70.82
56821;BME280;42702;50.178;20.992;2022-11-20T03:21:19;99072.36;;;-3.50;70.98
56821;BME280;42702;50.178;20.992;2022-11-20T03:23:48;99072.90;;;-3.46;70.89
56821;BME280;42702;50.178;20.992;2022-11-20T03:26:18;99071.96;;;-3.44;71.01
56821;BME280;42702;50.178;20.992;2022-11-20T03:28:49;99073.54;;;-3.43;70.82
56821;BME280;42702;50.178;20.992;2022-11-20T03:31:20;99068.59;;;-3.48;70.87
56821;BME280;42702;50.178;20.992;2022-11-20T03:33:50;99069.34;;;-3.46;70.89
56821;BME280;42702;50.178;20.992;2022-11-20T03:36:19;99075.56;;;-3.44;70.98
56821;BME280;42702;50.178;20.992;2022-11-20T03:38:48;99074.59;;;-3.43;70.87
56821;BME280;42702;50.178;20.992;2022-11-20T03:41:19;99069.07;;;-3.44;70.71
56821;BME280;42702;50.178;20.992;2022-11-20T03:43:49;99065.80;;;-3.49;70.63
56821;BME280;42702;50.178;20.992;2022-11-20T03:46:18;99063.58;;;-3.52;70.68
56821;BME280;42702;50.178;20.992;2022-11-20T03:48:47;99059.27;;;-3.57;70.63
56821;BME280;42702;50.178;20.992;2022-11-20T03:51:28;99060.47;;;-3.61;70.71
56821;BME280;42702;50.178;20.992;2022-11-20T03:53:59;99065.41;;;-3.65;70.85
56821;BME280;42702;50.178;20.992;2022-11-20T03:56:30;99068.48;;;-3.65;70.69
56821;BME280;42702;50.178;20.992;2022-11-20T03:58:58;99067.27;;;-3.65;70.71
56821;BME280;42702;50.178;20.992;2022-11-20T04:01:30;99067.92;;;-3.73;70.38
56821;BME280;42702;50.178;20.992;2022-11-20T04:03:59;99061.42;;;-3.76;70.68
56821;BME280;42702;50.178;20.992;2022-11-20T04:06:34;99059.92;;;-3.76;70.67
56821;BME280;42702;50.178;20.992;2022-11-20T04:09:04;99065.41;;;-3.69;70.55
56821;BME280;42702;50.178;20.992;2022-11-20T04:11:35;99062.58;;;-3.67;70.39
56821;BME280;42702;50.178;20.992;2022-11-20T04:14:05;99059.83;;;-3.68;70.62
56821;BME280;42702;50.178;20.992;2022-11-20T04:16:35;99055.57;;;-3.64;70.62
56821;BME280;42702;50.178;20.992;2022-11-20T04:19:05;99048.23;;;-3.64;70.53
56821;BME280;42702;50.178;20.992;2022-11-20T04:21:34;99050.09;;;-3.68;70.31
56821;BME280;42702;50.178;20.992;2022-11-20T04:24:03;99047.11;;;-3.73;70.30
56821;BME280;42702;50.178;20.992;2022-11-20T04:26:32;99050.86;;;-3.77;70.31
56821;BME280;42702;50.178;20.992;2022-11-20T04:29:00;99046.25;;;-3.80;70.22
56821;BME280;42702;50.178;20.992;2022-11-20T04:31:34;99049.37;;;-3.87;69.96
56821;BME280;42702;50.178;20.992;2022-11-20T04:34:05;99048.46;;;-3.95;69.94
56821;BME280;42702;50.178;20.992;2022-11-20T04:36:34;99047.44;;;-3.99;70.24
56821;BME280;42702;50.178;20.992;2022-11-20T04:39:05;99052.95;;;-4.01;70.30
56821;BME280;42702;50.178;20.992;2022-11-20T04:41:35;99047.92;;;-3.99;70.35
56821;BME280;42702;50.178;20.992;2022-11-20T04:44:05;99047.43;;;-4.03;69.89
56821;BME280;42702;50.178;20.992;2022-11-20T04:46:36;99047.14;;;-4.09;69.97
56821;BME280;42702;50.178;20.992;2022-11-20T04:49:05;99044.79;;;-4.15;69.92
56821;BME280;42702;50.178;20.992;2022-11-20T04:51:34;99042.09;;;-4.18;70.08
56821;BME280;42702;50.178;20.992;2022-11-20T04:54:02;99043.80;;;-4.17;70.30
56821;BME280;42702;50.178;20.992;2022-11-20T04:56:30;99044.61;;;-4.19;70.14
56821;BME280;42702;50.178;20.992;2022-11-20T04:59:02;99035.64;;;-4.18;70.20
56821;BME280;42702;50.178;20.992;2022-11-20T05:01:30;99032.08;;;-4.10;69.90
56821;BME280;42702;50.178;20.992;2022-11-20T05:04:00;99032.31;;;-4.13;69.82
56821;BME280;42702;50.178;20.992;2022-11-20T05:06:28;99033.74;;;-4.15;69.90
56821;BME280;42702;50.178;20.992;2022-11-20T05:08:57;99029.38;;;-4.21;69.70
56821;BME280;42702;50.178;20.992;2022-11-20T05:11:25;99032.07;;;-4.21;70.18
56821;BME280;42702;50.178;20.992;2022-11-20T05:13:53;99031.00;;;-4.15;70.24
56821;BME280;42702;50.178;20.992;2022-11-20T05:16:22;99032.04;;;-4.11;70.07
56821;BME280;42702;50.178;20.992;2022-11-20T05:18:53;99039.98;;;-4.09;69.83
56821;BME280;42702;50.178;20.992;2022-11-20T05:21:22;99045.27;;;-4.12;69.65
56821;BME280;42702;50.178;20.992;2022-11-20T05:23:50;99054.39;;;-4.17;70.08
56821;BME280;42702;50.178;20.992;2022-11-20T05:26:20;99054.59;;;-4.20;70.03
56821;BME280;42702;50.178;20.992;2022-11-20T05:28:52;99056.13;;;-4.23;70.40
56821;BME280;42702;50.178;20.992;2022-11-20T05:31:24;99059.35;;;-4.23;70.33
56821;BME280;42702;50.178;20.992;2022-11-20T05:33:56;99053.96;;;-4.26;70.53
56821;BME280;42702;50.178;20.992;2022-11-20T05:36:25;99053.91;;;-4.23;70.57
56821;BME280;42702;50.178;20.992;2022-11-20T05:38:53;99053.55;;;-4.24;70.53
56821;BME280;42702;50.178;20.992;2022-11-20T05:41:28;99053.48;;;-4.25;70.34
56821;BME280;42702;50.178;20.992;2022-11-20T05:43:57;99051.84;;;-4.17;70.26
56821;BME280;42702;50.178;20.992;2022-11-20T05:46:26;99050.80;;;-4.14;70.24
56821;BME280;42702;50.178;20.992;2022-11-20T05:48:57;99050.77;;;-4.14;70.57
56821;BME280;42702;50.178;20.992;2022-11-20T05:51:26;99048.20;;;-4.15;70.50
56821;BME280;42702;50.178;20.992;2022-11-20T05:53:57;99047.77;;;-4.17;70.51
56821;BME280;42702;50.178;20.992;2022-11-20T05:56:26;99041.26;;;-4.21;70.36
56821;BME280;42702;50.178;20.992;2022-11-20T05:58:55;99039.02;;;-4.22;70.54
56821;BME280;42702;50.178;20.992;2022-11-20T06:01:25;99039.66;;;-4.22;70.60
56821;BME280;42702;50.178;20.992;2022-11-20T06:03:54;99042.46;;;-4.21;70.55
56821;BME280;42702;50.178;20.992;2022-11-20T06:06:22;99047.27;;;-4.23;70.44
56821;BME280;42702;50.178;20.992;2022-11-20T06:08:50;99041.52;;;-4.30;70.51
56821;BME280;42702;50.178;20.992;2022-11-20T06:11:18;99039.02;;;-4.32;70.60
56821;BME280;42702;50.178;20.992;2022-11-20T06:13:47;99028.33;;;-4.32;70.70
56821;BME280;42702;50.178;20.992;2022-11-20T06:16:17;99027.85;;;-4.27;70.78
56821;BME280;42702;50.178;20.992;2022-11-20T06:18:47;99030.77;;;-4.23;70.59
56821;BME280;42702;50.178;20.992;2022-11-20T06:21:18;99025.77;;;-4.21;70.59
56821;BME280;42702;50.178;20.992;2022-11-20T06:23:47;99018.33;;;-4.20;70.47
56821;BME280;42702;50.178;20.992;2022-11-20T06:26:20;99019.05;;;-4.19;70.58
56821;BME280;42702;50.178;20.992;2022-11-20T06:28:50;99025.12;;;-4.17;70.32
56821;BME280;42702;50.178;20.992;2022-11-20T06:31:21;99020.84;;;-4.07;70.21
56821;BME280;42702;50.178;20.992;2022-11-20T06:33:50;99016.10;;;-4.03;70.37
56821;BME280;42702;50.178;20.992;2022-11-20T06:36:21;99016.46;;;-4.03;70.64
56821;BME280;42702;50.178;20.992;2022-11-20T06:38:50;99016.30;;;-4.02;70.48
56821;BME280;42702;50.178;20.992;2022-11-20T06:41:20;99021.99;;;-4.01;70.67
56821;BME280;42702;50.178;20.992;2022-11-20T06:43:49;99021.02;;;-3.99;70.64
56821;BME280;42702;50.178;20.992;2022-11-20T06:46:19;99020.72;;;-3.99;70.74
56821;BME280;42702;50.178;20.992;2022-11-20T06:48:48;99018.58;;;-3.97;70.78
56821;BME280;42702;50.178;20.992;2022-11-20T06:51:17;99016.93;;;-3.96;70.50
56821;BME280;42702;50.178;20.992;2022-11-20T06:53:45;99017.05;;;-3.97;70.67
56821;BME280;42702;50.178;20.992;2022-11-20T06:56:14;99017.41;;;-3.96;70.48
56821;BME280;42702;50.178;20.992;2022-11-20T06:58:42;99020.29;;;-3.97;70.45
56821;BME280;42702;50.178;20.992;2022-11-20T07:01:12;99018.35;;;-4.02;70.24
56821;BME280;42702;50.178;20.992;2022-11-20T07:03:42;99018.02;;;-4.05;70.65
56821;BME280;42702;50.178;20.992;2022-11-20T07:06:11;99017.21;;;-4.05;70.44
56821;BME280;42702;50.178;20.992;2022-11-20T07:08:39;99017.40;;;-4.04;70.46
56821;BME280;42702;50.178;20.992;2022-11-20T07:11:07;99017.14;;;-4.02;70.59
56821;BME280;42702;50.178;20.992;2022-11-20T07:13:36;99011.88;;;-4.02;70.42
56821;BME280;42702;50.178;20.992;2022-11-20T07:16:07;99013.95;;;-4.02;70.45
56821;BME280;42702;50.178;20.992;2022-11-20T07:18:36;99013.59;;;-3.91;70.24
56821;BME280;42702;50.178;20.992;2022-11-20T07:21:07;99015.34;;;-3.86;70.30
56821;BME280;42702;50.178;20.992;2022-11-20T07:23:36;99015.20;;;-3.85;70.31
56821;BME280;42702;50.178;20.992;2022-11-20T07:26:09;99013.94;;;-3.80;70.69
56821;BME280;42702;50.178;20.992;2022-11-20T07:28:38;99008.36;;;-3.71;70.74
56821;BME280;42702;50.178;20.992;2022-11-20T07:31:06;99009.56;;;-3.64;70.71
56821;BME280;42702;50.178;20.992;2022-11-20T07:33:35;99005.29;;;-3.57;70.68
56821;BME280;42702;50.178;20.992;2022-11-20T07:36:04;99005.73;;;-3.51;70.73
56821;BME280;42702;50.178;20.992;2022-11-20T07:38:32;99005.65;;;-3.46;70.65
56821;BME280;42702;50.178;20.992;2022-11-20T07:41:00;99008.23;;;-3.41;70.75
56821;BME280;42702;50.178;20.992;2022-11-20T07:43:29;99009.67;;;-3.35;70.82
56821;BME280;42702;50.178;20.992;2022-11-20T07:45:59;99007.98;;;-3.31;70.86
56821;BME280;42702;50.178;20.992;2022-11-20T07:48:27;99011.24;;;-3.27;71.01
56821;BME280;42702;50.178;20.992;2022-11-20T07:50:56;99018.77;;;-3.27;71.05
56821;BME280;42702;50.178;20.992;2022-11-20T07:53:24;99022.98;;;-3.24;71.22
56821;BME280;42702;50.178;20.992;2022-11-20T07:55:52;99030.23;;;-3.21;71.40
56821;BME280;42702;50.178;20.992;2022-11-20T07:58:21;99030.45;;;-3.16;71.44
56821;BME280;42702;50.178;20.992;2022-11-20T08:00:49;99033.56;;;-3.00;71.43
56821;BME280;42702;50.178;20.992;2022-11-20T08:03:18;99033.80;;;-2.91;71.54
56821;BME280;42702;50.178;20.992;2022-11-20T08:05:51;99029.38;;;-2.83;71.68
56821;BME280;42702;50.178;20.992;2022-11-20T08:08:20;99029.48;;;-2.72;71.81
56821;BME280;42702;50.178;20.992;2022-11-20T08:10:49;99022.41;;;-2.62;71.86
56821;BME280;42702;50.178;20.992;2022-11-20T08:13:17;99021.35;;;-2.51;72.01
56821;BME280;42702;50.178;20.992;2022-11-20T08:16:04;99025.76;;;-2.39;72.09
56821;BME280;42702;50.178;20.992;2022-11-20T08:18:32;99027.08;;;-2.32;72.16
56821;BME280;42702;50.178;20.992;2022-11-20T08:21:04;99018.48;;;-2.25;72.18
56821;BME280;42702;50.178;20.992;2022-11-20T08:23:33;99014.21;;;-2.17;72.31
56821;BME280;42702;50.178;20.992;2022-11-20T08:26:01;99011.83;;;-2.12;72.29
56821;BME280;42702;50.178;20.992;2022-11-20T08:28:29;99013.02;;;-2.08;72.33
56821;BME280;42702;50.178;20.992;2022-11-20T08:30:58;99017.50;;;-2.03;72.18
56821;BME280;42702;50.178;20.992;2022-11-20T08:33:27;99024.42;;;-1.92;71.95
56821;BME280;42702;50.178;20.992;2022-11-20T08:36:03;99023.11;;;-1.86;72.04
56821;BME280;42702;50.178;20.992;2022-11-20T08:38:31;99018.79;;;-1.83;72.32
56821;BME280;42702;50.178;20.992;2022-11-20T08:41:01;99019.17;;;-1.78;72.40
56821;BME280;42702;50.178;20.992;2022-11-20T08:43:58;99019.69;;;-1.73;72.37
56821;BME280;42702;50.178;20.992;2022-11-20T08:46:31;99019.44;;;-1.66;72.73
56821;BME280;42702;50.178;20.992;2022-11-20T08:49:01;99017.14;;;-1.64;72.73
56821;BME280;42702;50.178;20.992;2022-11-20T08:51:29;99012.25;;;-1.62;73.05
56821;BME280;42702;50.178;20.992;2022-11-20T08:53:58;99010.66;;;-1.59;72.97
56821;BME280;42702;50.178;20.992;2022-11-20T08:56:26;99005.89;;;-1.58;72.78
56821;BME280;42702;50.178;20.992;2022-11-20T08:58:54;99001.33;;;-1.57;72.95
56821;BME280;42702;50.178;20.992;2022-11-20T09:01:42;98991.56;;;-1.49;72.69
56821;BME280;42702;50.178;20.992;2022-11-20T09:04:10;98985.94;;;-1.39;72.48
56821;BME280;42702;50.178;20.992;2022-11-20T09:06:39;98987.71;;;-1.42;72.69
56821;BME280;42702;50.178;20.992;2022-11-20T09:09:08;98987.75;;;-1.41;73.09
56821;BME280;42702;50.178;20.992;2022-11-20T09:11:36;98988.96;;;-1.36;73.15
56821;BME280;42702;50.178;20.992;2022-11-20T09:14:04;98993.55;;;-1.37;72.92
56821;BME280;42702;50.178;20.992;2022-11-20T09:16:32;98988.48;;;-1.40;73.17
56821;BME280;42702;50.178;20.992;2022-11-20T09:19:00;98984.88;;;-1.40;73.20
56821;BME280;42702;50.178;20.992;2022-11-20T09:21:49;98982.52;;;-1.39;73.36
56821;BME280;42702;50.178;20.992;2022-11-20T09:24:17;98978.37;;;-1.36;73.37
56821;BME280;42702;50.178;20.992;2022-11-20T09:26:46;98974.35;;;-1.38;73.49
56821;BME280;42702;50.178;20.992;2022-11-20T09:29:14;98970.39;;;-1.34;73.33
56821;BME280;42702;50.178;20.992;2022-11-20T09:31:42;98965.46;;;-1.38;73.11
56821;BME280;42702;50.178;20.992;2022-11-20T09:34:10;98961.85;;;-1.43;73.32
56821;BME280;42702;50.178;20.992;2022-11-20T09:36:38;98956.42;;;-1.47;73.53
56821;BME280;42702;50.178;20.992;2022-11-20T09:39:06;98953.86;;;-1.47;73.74
56821;BME280;42702;50.178;20.992;2022-11-20T09:50:07;98964.71;;;-1.49;74.12
56821;BME280;42702;50.178;20.992;2022-11-20T09:55:29;98963.91;;;-1.24;74.07
56821;BME280;42702;50.178;20.992;2022-11-20T09:57:59;98964.73;;;-1.20;73.73
56821;BME280;42702;50.178;20.992;2022-11-20T10:00:28;98965.04;;;-1.22;74.20
56821;BME280;42702;50.178;20.992;2022-11-20T10:05:44;98965.54;;;-1.12;74.08
56821;BME280;42702;50.178;20.992;2022-11-20T10:08:33;98970.56;;;-1.10;74.08
56821;BME280;42702;50.178;20.992;2022-11-20T10:11:14;98970.48;;;-1.03;74.31
56821;BME280;42702;50.178;20.992;2022-11-20T10:19:32;98961.33;;;-0.70;74.03
56821;BME280;42702;50.178;20.992;2022-11-20T10:30:16;98963.23;;;-0.39;73.68
56821;BME280;42702;50.178;20.992;2022-11-20T10:32:48;98968.72;;;-0.33;73.76
56821;BME280;42702;50.178;20.992;2022-11-20T10:35:27;98968.41;;;-0.27;73.72
56821;BME280;42702;50.178;20.992;2022-11-20T10:37:59;98965.79;;;-0.24;73.31
56821;BME280;42702;50.178;20.992;2022-11-20T10:40:41;98963.23;;;-0.23;73.24
56821;BME280;42702;50.178;20.992;2022-11-20T10:46:13;98958.41;;;-0.24;73.01
56821;BME280;42702;50.178;20.992;2022-11-20T10:48:44;98960.95;;;-0.25;73.05
56821;BME280;42702;50.178;20.992;2022-11-20T10:56:33;98956.73;;;-0.28;72.76
56821;BME280;42702;50.178;20.992;2022-11-20T11:01:52;98944.39;;;-0.12;72.94
56821;BME280;42702;50.178;20.992;2022-11-20T11:04:35;98936.25;;;-0.10;73.07
56821;BME280;42702;50.178;20.992;2022-11-20T11:09:50;98922.88;;;0.02;73.03
56821;BME280;42702;50.178;20.992;2022-11-20T11:12:22;98924.14;;;0.03;73.09
56821;BME280;42702;50.178;20.992;2022-11-20T11:14:54;98919.45;;;0.01;73.16
56821;BME280;42702;50.178;20.992;2022-11-20T11:17:33;98925.73;;;-0.01;73.23
56821;BME280;42702;50.178;20.992;2022-11-20T11:22:57;98929.89;;;0.01;73.39
56821;BME280;42702;50.178;20.992;2022-11-20T11:25:36;98927.00;;;0.02;73.38
56821;BME280;42702;50.178;20.992;2022-11-20T11:28:22;98926.59;;;0.05;73.47
56821;BME280;42702;50.178;20.992;2022-11-20T11:30:53;98924.48;;;0.14;73.31
56821;BME280;42702;50.178;20.992;2022-11-20T11:33:26;98918.83;;;0.14;73.25
56821;BME280;42702;50.178;20.992;2022-11-20T11:35:58;98908.93;;;0.10;73.16
56821;BME280;42702;50.178;20.992;2022-11-20T11:38:35;98904.96;;;0.09;73.60
56821;BME280;42702;50.178;20.992;2022-11-20T11:41:05;98902.04;;;0.09;73.34
56821;BME280;42702;50.178;20.992;2022-11-20T11:43:36;98898.66;;;0.05;73.53
56821;BME280;42702;50.178;20.992;2022-11-20T11:46:27;98891.98;;;0.05;73.67
56821;BME280;42702;50.178;20.992;2022-11-20T11:48:59;98885.29;;;0.04;73.49
56821;BME280;42702;50.178;20.992;2022-11-20T11:54:45;98876.48;;;0.02;73.57
56821;BME280;42702;50.178;20.992;2022-11-20T12:10:24;98847.59;;;0.35;73.66
56821;BME280;42702;50.178;20.992;2022-11-20T12:16:02;98853.15;;;0.37;73.33
56821;BME280;42702;50.178;20.992;2022-11-20T12:18:31;98857.04;;;0.35;73.63
56821;BME280;42702;50.178;20.992;2022-11-20T12:48:59;98813.98;;;0.79;73.71
56821;BME280;42702;50.178;20.992;2022-11-20T12:56:56;98839.92;;;0.88;73.41
56821;BME280;42702;50.178;20.992;2022-11-20T13:05:27;98840.42;;;0.87;73.28
56821;BME280;42702;50.178;20.992;2022-11-20T13:07:57;98835.34;;;0.89;72.88
56821;BME280;42702;50.178;20.992;2022-11-20T13:10:39;98833.30;;;0.97;72.77
56821;BME280;42702;50.178;20.992;2022-11-20T13:19:15;98829.50;;;0.83;73.20
56821;BME280;42702;50.178;20.992;2022-11-20T13:21:46;98832.54;;;0.74;73.15
56821;BME280;42702;50.178;20.992;2022-11-20T13:24:21;98839.01;;;0.66;73.53
56821;BME280;42702;50.178;20.992;2022-11-20T13:29:36;98844.25;;;0.50;73.78
56821;BME280;42702;50.178;20.992;2022-11-20T13:32:16;98844.95;;;0.44;73.78
56821;BME280;42702;50.178;20.992;2022-11-20T13:34:56;98846.71;;;0.40;73.77
56821;BME280;42702;50.178;20.992;2022-11-20T13:37:34;98846.73;;;0.46;73.72
56821;BME280;42702;50.178;20.992;2022-11-20T13:45:41;98833.01;;;0.28;74.10
56821;BME280;42702;50.178;20.992;2022-11-20T13:48:21;98832.81;;;0.21;74.10
56821;BME280;42702;50.178;20.992;2022-11-20T13:53:33;98831.91;;;0.01;74.44
56821;BME280;42702;50.178;20.992;2022-11-20T14:01:32;98812.33;;;0.11;74.51
56821;BME280;42702;50.178;20.992;2022-11-20T14:04:07;98804.05;;;0.15;74.50
56821;BME280;42702;50.178;20.992;2022-11-20T14:06:44;98799.31;;;0.18;74.61
56821;BME280;42702;50.178;20.992;2022-11-20T14:09:32;98795.55;;;0.18;74.55
56821;BME280;42702;50.178;20.992;2022-11-20T14:12:02;98792.79;;;0.17;74.88
56821;BME280;42702;50.178;20.992;2022-11-20T14:14:33;98793.38;;;0.20;74.84
56821;BME280;42702;50.178;20.992;2022-11-20T14:17:16;98795.18;;;0.23;74.93
56821;BME280;42702;50.178;20.992;2022-11-20T14:19:49;98801.67;;;0.23;74.73
56821;BME280;42702;50.178;20.992;2022-11-20T14:22:25;98804.67;;;0.20;74.58
56821;BME280;42702;50.178;20.992;2022-11-20T14:25:04;98811.72;;;0.14;74.55
56821;BME280;42702;50.178;20.992;2022-11-20T14:27:36;98811.88;;;0.20;74.45
56821;BME280;42702;50.178;20.992;2022-11-20T14:30:16;98816.33;;;0.20;74.68
56821;BME280;42702;50.178;20.992;2022-11-20T14:32:46;98814.67;;;0.22;74.87
56821;BME280;42702;50.178;20.992;2022-11-20T14:37:52;98807.42;;;0.26;74.80
56821;BME280;42702;50.178;20.992;2022-11-20T14:40:23;98805.13;;;0.30;74.97
56821;BME280;42702;50.178;20.992;2022-11-20T14:42:52;98809.30;;;0.32;74.80
56821;BME280;42702;50.178;20.992;2022-11-20T14:45:21;98808.45;;;0.32;74.81
56821;BME280;42702;50.178;20.992;2022-11-20T14:47:55;98809.40;;;0.36;74.93
56821;BME280;42702;50.178;20.992;2022-11-20T14:50:26;98803.63;;;0.38;74.94
56821;BME280;42702;50.178;20.992;2022-11-20T14:52:59;98802.94;;;0.44;74.85
56821;BME280;42702;50.178;20.992;2022-11-20T14:55:33;98799.08;;;0.54;74.58
56821;BME280;42702;50.178;20.992;2022-11-20T14:58:18;98799.84;;;0.56;74.62
56821;BME280;42702;50.178;20.992;2022-11-20T15:01:02;98798.92;;;0.54;74.61
56821;BME280;42702;50.178;20.992;2022-11-20T15:03:39;98796.70;;;0.54;74.77
56821;BME280;42702;50.178;20.992;2022-11-20T15:06:11;98795.98;;;0.53;74.54
56821;BME280;42702;50.178;20.992;2022-11-20T15:08:50;98802.64;;;0.52;74.65
56821;BME280;42702;50.178;20.992;2022-11-20T15:11:20;98807.46;;;0.53;74.77
56821;BME280;42702;50.178;20.992;2022-11-20T15:13:53;98800.98;;;0.48;74.72
56821;BME280;42702;50.178;20.992;2022-11-20T15:16:23;98802.95;;;0.44;74.60
56821;BME280;42702;50.178;20.992;2022-11-20T15:18:52;98800.71;;;0.44;74.78
56821;BME280;42702;50.178;20.992;2022-11-20T15:21:21;98799.37;;;0.51;74.49
56821;BME280;42702;50.178;20.992;2022-11-20T15:23:49;98799.67;;;0.50;74.48
56821;BME280;42702;50.178;20.992;2022-11-20T15:26:24;98798.34;;;0.45;74.66
56821;BME280;42702;50.178;20.992;2022-11-20T15:28:53;98800.17;;;0.43;74.78
56821;BME280;42702;50.178;20.992;2022-11-20T15:31:22;98797.60;;;0.43;74.81